Terminal Aerodrome Forecast
Issued by NWS Omaha/Valley, NE

Home | Current Version | Previous Version | Graphics & Text | Print | Product List | Glossary On
Versions: 1 2 3 4 5 6 7 8 9 10 11 12 13 14 15 16 17 18 19 20 21 22 23 24 25 26 27 28 29 30
069
FTUS43 KOAX 231430 AAB
TAFOFK
TAF AMD
KOFK 231430Z 2315/2412 16012KT P6SM VCSH SCT025 OVC070
      TEMPO 2315/2317 2SM TSRA BKN025 OVC040CB
     FM231800 17015G23KT P6SM SCT040 BKN100
     FM240000 17013KT P6SM BKN090=

USA.gov is the U.S. government's official web portal to all federal, state and local government web resources and services.